Time;durP1;ratioP1;P1;durP2;ratioP2;P2;SDS_P1;SDS_P2;PMS_P1;PMS_P2;Temp;Humidity;BMP_temperature;BMP_pressure;BME280_temperature;BME280_humidity;BME280_pressure;Samples;Min_cycle;Max_cycle;Signal;HPM_P1;HPM_P2
2022/09/29 00:01:03;;;;;;;7.80;1.42;;;;;;;;;;4944004;28;20039;-59
2022/09/29 00:03:49;;;;;;;8.13;1.52;;;;;;;;;;4959426;28;20043;-58
2022/09/29 00:06:35;;;;;;;6.57;1.33;;;;;;;;;;4962148;28;20065;-58
2022/09/29 00:09:20;;;;;;;4.82;1.63;;;;;;;;;;4953652;28;20046;-58
2022/09/29 00:12:06;;;;;;;8.00;1.58;;;;;;;;;;4962312;28;20430;-58
2022/09/29 00:14:52;;;;;;;6.20;1.65;;;;;;;;;;4957775;28;20073;-58
2022/09/29 00:17:37;;;;;;;4.82;1.40;;;;;;;;;;4958193;28;20491;-57
2022/09/29 00:20:23;;;;;;;8.43;1.80;;;;;;;;;;4960046;28;20495;-58
2022/09/29 00:23:09;;;;;;;3.90;1.50;;;;;;;;;;4964008;28;20043;-58
2022/09/29 00:26:22;;;;;;;4.55;1.00;;;;;;;;;;4960399;28;20050;-59
2022/09/29 00:29:08;;;;;;;5.03;1.80;;;;;;;;;;4960787;28;20043;-58
2022/09/29 00:31:54;;;;;;;4.90;1.45;;;;;;;;;;4957517;28;20122;-59
2022/09/29 00:34:40;;;;;;;5.18;1.45;;;;;;;;;;4957100;28;20035;-58
2022/09/29 00:37:26;;;;;;;3.30;1.15;;;;;;;;;;4958357;28;20112;-59
2022/09/29 00:40:12;;;;;;;5.97;1.63;;;;;;;;;;4952661;28;20062;-59
2022/09/29 00:42:57;;;;;;;5.45;1.50;;;;;;;;;;4955160;28;20040;-59
2022/09/29 00:45:43;;;;;;;8.20;1.42;;;;;;;;;;4960568;28;20030;-58
2022/09/29 00:48:31;;;;;;;4.35;1.63;;;;;;;;;;4957638;28;20408;-58
2022/09/29 00:51:18;;;;;;;7.90;1.50;;;;;;;;;;4960004;28;20043;-59
2022/09/29 00:54:06;;;;;;;4.65;1.20;;;;;;;;;;4961293;28;20060;-58
2022/09/29 00:56:53;;;;;;;5.18;1.50;;;;;;;;;;4957564;28;20476;-59
2022/09/29 01:00:01;;;;;;;2.63;1.20;;;;;;;;;;4958766;28;20400;-59
2022/09/29 01:02:54;;;;;;;3.33;1.25;;;;;;;;;;4954611;28;20125;-59
2022/09/29 01:05:48;;;;;;;3.53;1.00;;;;;;;;;;4954586;28;20118;-58
2022/09/29 01:08:52;;;;;;;8.40;1.60;;;;;;;;;;4958434;28;20053;-58
2022/09/29 01:11:37;;;;;;;4.75;1.63;;;;;;;;;;4955209;28;20042;-57
2022/09/29 01:14:24;;;;;;;4.50;1.17;;;;;;;;;;4956798;28;20178;-58
2022/09/29 01:17:10;;;;;;;3.58;1.40;;;;;;;;;;4953763;28;20049;-58
2022/09/29 01:20:19;;;;;;;3.50;1.20;;;;;;;;;;4955339;28;20073;-58
2022/09/29 01:23:33;;;;;;;5.90;1.25;;;;;;;;;;4952752;28;20068;-59
2022/09/29 01:26:37;;;;;;;5.57;0.90;;;;;;;;;;4953925;28;20411;-59
2022/09/29 01:29:45;;;;;;;5.53;1.45;;;;;;;;;;4955759;28;20412;-59
2022/09/29 01:32:51;;;;;;;6.07;1.00;;;;;;;;;;4960943;28;20054;-59
2022/09/29 01:36:01;;;;;;;10.70;1.25;;;;;;;;;;4948625;28;20044;-58
2022/09/29 01:39:02;;;;;;;5.88;1.20;;;;;;;;;;4956240;28;20046;-59
2022/09/29 01:41:56;;;;;;;3.80;0.90;;;;;;;;;;4955015;28;20042;-57
2022/09/29 01:44:52;;;;;;;3.70;1.08;;;;;;;;;;4960967;28;20051;-59
2022/09/29 01:47:46;;;;;;;5.80;1.38;;;;;;;;;;4954471;28;20039;-58
2022/09/29 01:50:38;;;;;;;2.78;1.00;;;;;;;;;;4959122;28;20051;-59
2022/09/29 01:53:34;;;;;;;3.50;1.27;;;;;;;;;;4953561;28;20046;-59
2022/09/29 01:56:28;;;;;;;1.85;0.68;;;;;;;;;;4955585;28;20042;-58
2022/09/29 01:59:29;;;;;;;3.67;1.02;;;;;;;;;;4957952;28;20061;-59
2022/09/29 02:02:53;;;;;;;3.85;0.90;;;;;;;;;;4952751;28;20043;-59
2022/09/29 02:05:45;;;;;;;2.80;1.08;;;;;;;;;;4956519;28;20054;-58
2022/09/29 02:08:33;;;;;;;2.85;0.95;;;;;;;;;;4954165;28;20428;-57
2022/09/29 02:11:20;;;;;;;3.47;0.88;;;;;;;;;;4955898;28;20504;-58
2022/09/29 02:14:22;;;;;;;2.63;0.80;;;;;;;;;;4959637;28;20443;-59
2022/09/29 02:17:18;;;;;;;3.20;0.90;;;;;;;;;;4953352;28;20130;-59
2022/09/29 02:20:05;;;;;;;3.00;0.90;;;;;;;;;;4943408;28;20285;-59
2022/09/29 02:22:50;;;;;;;2.03;0.70;;;;;;;;;;4955895;28;20446;-59
2022/09/29 02:25:37;;;;;;;7.82;1.73;;;;;;;;;;4956798;28;20069;-59
2022/09/29 02:28:23;;;;;;;2.03;0.82;;;;;;;;;;4950448;28;20045;-58
2022/09/29 02:31:09;;;;;;;3.50;1.20;;;;;;;;;;4957757;28;20043;-59
2022/09/29 02:33:55;;;;;;;3.45;1.00;;;;;;;;;;4956518;28;20531;-59
2022/09/29 02:36:53;;;;;;;3.40;0.90;;;;;;;;;;4955699;28;20030;-59
2022/09/29 02:39:44;;;;;;;3.70;0.88;;;;;;;;;;4954765;28;20067;-59
2022/09/29 02:42:43;;;;;;;2.58;0.80;;;;;;;;;;4950589;28;20549;-58
2022/09/29 02:45:35;;;;;;;5.70;1.38;;;;;;;;;;4960546;28;20064;-59
2022/09/29 02:48:50;;;;;;;3.05;0.90;;;;;;;;;;4956067;28;20050;-59
2022/09/29 02:51:39;;;;;;;3.08;1.20;;;;;;;;;;4956664;28;20495;-57
2022/09/29 02:54:54;;;;;;;4.07;0.95;;;;;;;;;;4943943;28;20042;-58
2022/09/29 02:57:52;;;;;;;4.32;0.90;;;;;;;;;;4955979;28;20138;-58
2022/09/29 03:00:39;;;;;;;2.45;0.60;;;;;;;;;;4953119;28;20042;-54
2022/09/29 03:03:24;;;;;;;4.18;0.93;;;;;;;;;;4953144;28;20050;-58
2022/09/29 03:06:11;;;;;;;2.17;0.63;;;;;;;;;;4957067;28;20050;-58
2022/09/29 03:08:57;;;;;;;2.50;0.70;;;;;;;;;;4957494;28;20529;-58
2022/09/29 03:11:42;;;;;;;2.83;0.88;;;;;;;;;;4952937;28;20097;-59
2022/09/29 03:14:28;;;;;;;3.17;0.93;;;;;;;;;;4957267;28;20085;-59
2022/09/29 03:17:14;;;;;;;3.80;1.00;;;;;;;;;;4955392;28;20060;-59
2022/09/29 03:20:00;;;;;;;3.72;1.10;;;;;;;;;;4954678;28;20115;-58
2022/09/29 03:22:46;;;;;;;1.30;0.82;;;;;;;;;;4953168;28;20190;-58
2022/09/29 03:25:31;;;;;;;1.35;0.60;;;;;;;;;;4957358;28;20093;-59
2022/09/29 03:28:17;;;;;;;2.97;1.02;;;;;;;;;;4955215;28;20035;-59
2022/09/29 03:31:05;;;;;;;7.90;1.05;;;;;;;;;;4955795;28;20046;-57
2022/09/29 03:33:51;;;;;;;6.00;1.50;;;;;;;;;;4957034;28;20090;-59
2022/09/29 03:36:37;;;;;;;2.22;0.82;;;;;;;;;;4958929;28;20070;-58
2022/09/29 03:39:23;;;;;;;1.63;1.23;;;;;;;;;;4955346;28;20046;-59
2022/09/29 03:42:09;;;;;;;4.07;0.90;;;;;;;;;;4959197;28;20062;-57
2022/09/29 03:44:54;;;;;;;3.92;1.38;;;;;;;;;;4958613;28;20054;-58
2022/09/29 03:47:40;;;;;;;4.60;0.73;;;;;;;;;;4952554;28;20122;-58
2022/09/29 03:50:26;;;;;;;2.63;1.10;;;;;;;;;;4957334;28;20447;-59
2022/09/29 03:53:12;;;;;;;4.45;1.00;;;;;;;;;;4954349;28;20073;-59
2022/09/29 03:55:58;;;;;;;1.42;0.65;;;;;;;;;;4954338;28;20065;-57
2022/09/29 03:58:44;;;;;;;5.65;1.17;;;;;;;;;;4947596;28;20409;-58
2022/09/29 04:01:31;;;;;;;3.00;1.02;;;;;;;;;;4961008;28;20046;-59
2022/09/29 04:04:16;;;;;;;3.97;1.00;;;;;;;;;;4957298;28;20458;-58
2022/09/29 04:07:02;;;;;;;2.25;1.20;;;;;;;;;;4959355;28;20046;-58
2022/09/29 04:09:48;;;;;;;3.55;0.95;;;;;;;;;;4955862;28;20035;-59
2022/09/29 04:12:33;;;;;;;3.67;1.63;;;;;;;;;;4960407;28;20081;-58
2022/09/29 04:15:19;;;;;;;3.38;1.02;;;;;;;;;;4955835;28;20081;-58
2022/09/29 04:18:05;;;;;;;3.72;1.10;;;;;;;;;;4954809;28;20035;-58
2022/09/29 04:20:51;;;;;;;2.58;1.10;;;;;;;;;;4956068;28;20051;-58
2022/09/29 04:23:37;;;;;;;3.03;1.13;;;;;;;;;;4953460;28;20035;-58
2022/09/29 04:26:23;;;;;;;4.90;1.35;;;;;;;;;;4959027;28;20114;-57
2022/09/29 04:29:09;;;;;;;2.47;1.00;;;;;;;;;;4954250;28;20050;-58
2022/09/29 04:31:55;;;;;;;3.92;1.00;;;;;;;;;;4960465;28;20078;-59
2022/09/29 04:34:40;;;;;;;7.03;1.00;;;;;;;;;;4958340;28;20095;-58
2022/09/29 04:37:27;;;;;;;3.05;0.95;;;;;;;;;;4954590;28;20114;-58
2022/09/29 04:40:13;;;;;;;3.58;0.95;;;;;;;;;;4954970;28;20098;-58
2022/09/29 04:42:58;;;;;;;4.82;0.80;;;;;;;;;;4952999;28;20054;-58
2022/09/29 04:45:44;;;;;;;3.00;0.85;;;;;;;;;;4959817;28;20038;-58
2022/09/29 04:48:30;;;;;;;5.88;1.00;;;;;;;;;;4942113;28;20449;-58
2022/09/29 04:51:16;;;;;;;3.25;1.13;;;;;;;;;;4955135;28;20056;-56
2022/09/29 04:54:01;;;;;;;3.13;1.00;;;;;;;;;;4949815;28;20089;-58
2022/09/29 04:56:48;;;;;;;3.58;1.10;;;;;;;;;;4956133;28;20130;-57
2022/09/29 04:59:34;;;;;;;2.15;1.00;;;;;;;;;;4954874;28;20054;-58
2022/09/29 05:02:19;;;;;;;4.80;0.95;;;;;;;;;;4956466;28;20032;-58
2022/09/29 05:05:06;;;;;;;2.60;1.10;;;;;;;;;;4957683;28;20046;-58
2022/09/29 05:07:51;;;;;;;5.00;0.93;;;;;;;;;;4954188;28;20031;-57
2022/09/29 05:10:37;;;;;;;3.55;0.95;;;;;;;;;;4955802;28;20046;-59
2022/09/29 05:13:23;;;;;;;4.45;1.38;;;;;;;;;;4953104;28;20571;-59
2022/09/29 05:16:09;;;;;;;7.13;1.08;;;;;;;;;;4953801;28;20030;-59
2022/09/29 05:18:54;;;;;;;3.15;0.93;;;;;;;;;;4954871;28;20055;-59
2022/09/29 05:21:40;;;;;;;5.72;1.63;;;;;;;;;;4950295;28;20050;-59
2022/09/29 05:24:26;;;;;;;4.00;1.55;;;;;;;;;;4948554;28;20047;-59
2022/09/29 05:27:12;;;;;;;3.60;1.08;;;;;;;;;;4955575;28;20600;-59
2022/09/29 05:29:57;;;;;;;3.45;1.13;;;;;;;;;;4947907;28;20543;-59
2022/09/29 05:32:43;;;;;;;4.18;1.00;;;;;;;;;;4958051;28;20066;-58
2022/09/29 05:35:29;;;;;;;4.38;0.90;;;;;;;;;;4956197;28;20029;-59
2022/09/29 05:38:15;;;;;;;5.57;1.02;;;;;;;;;;4952132;28;20400;-59
2022/09/29 05:41:05;;;;;;;3.53;0.73;;;;;;;;;;4956342;28;20042;-59
2022/09/29 05:43:53;;;;;;;3.20;1.00;;;;;;;;;;4953835;28;20075;-59
2022/09/29 05:46:40;;;;;;;3.35;0.90;;;;;;;;;;4956003;28;20023;-59
2022/09/29 05:49:25;;;;;;;2.40;0.77;;;;;;;;;;4954813;28;20123;-59
2022/09/29 05:52:11;;;;;;;4.25;1.10;;;;;;;;;;4950130;28;20434;-59
2022/09/29 05:54:57;;;;;;;3.70;1.17;;;;;;;;;;4950759;28;20050;-59
2022/09/29 05:57:47;;;;;;;2.35;0.82;;;;;;;;;;4954974;28;20373;-58
2022/09/29 06:00:33;;;;;;;3.97;1.08;;;;;;;;;;4953609;28;20078;-59
2022/09/29 06:03:19;;;;;;;3.08;0.88;;;;;;;;;;4954465;28;20101;-58
2022/09/29 06:06:15;;;;;;;4.10;1.00;;;;;;;;;;4956013;28;20039;-58
2022/09/29 06:09:01;;;;;;;4.97;1.30;;;;;;;;;;4956104;28;20070;-59
2022/09/29 06:11:46;;;;;;;3.03;1.38;;;;;;;;;;4954729;28;20043;-59
2022/09/29 06:14:32;;;;;;;3.45;1.23;;;;;;;;;;4954898;28;20050;-58
2022/09/29 06:17:18;;;;;;;1.70;1.10;;;;;;;;;;4954045;28;20546;-59
2022/09/29 06:20:04;;;;;;;4.93;0.90;;;;;;;;;;4953202;28;20750;-59
2022/09/29 06:22:56;;;;;;;4.07;1.30;;;;;;;;;;4951476;28;20040;-59
2022/09/29 06:25:42;;;;;;;10.57;1.48;;;;;;;;;;4956292;28;20034;-59
2022/09/29 06:28:28;;;;;;;5.43;1.25;;;;;;;;;;4954447;28;20046;-59
2022/09/29 06:31:16;;;;;;;2.30;0.80;;;;;;;;;;4956125;28;20082;-59
2022/09/29 06:34:03;;;;;;;5.00;1.48;;;;;;;;;;4953326;28;20129;-59
2022/09/29 06:39:54;;;;;;;3.53;1.45;;;;;;;;;;4953581;28;20550;-59
2022/09/29 06:42:39;;;;;;;2.55;0.95;;;;;;;;;;4954791;28;20034;-59
2022/09/29 06:45:25;;;;;;;3.70;1.38;;;;;;;;;;4956335;28;20039;-59
2022/09/29 06:48:11;;;;;;;5.70;1.60;;;;;;;;;;4958517;28;20085;-59
2022/09/29 06:50:57;;;;;;;3.92;1.13;;;;;;;;;;4954999;28;20070;-59
2022/09/29 06:53:42;;;;;;;2.97;1.05;;;;;;;;;;4952958;28;20070;-59
2022/09/29 06:56:28;;;;;;;3.53;1.23;;;;;;;;;;4958296;28;20037;-59
2022/09/29 06:59:14;;;;;;;8.00;1.55;;;;;;;;;;4958847;28;20035;-58
2022/09/29 07:02:00;;;;;;;3.33;1.20;;;;;;;;;;4956165;28;20118;-57
2022/09/29 07:04:47;;;;;;;6.18;1.48;;;;;;;;;;4952614;28;20134;-59
2022/09/29 07:07:33;;;;;;;2.85;1.02;;;;;;;;;;4950587;28;20102;-59
2022/09/29 07:10:19;;;;;;;9.63;1.10;;;;;;;;;;4954205;28;20040;-59
2022/09/29 07:13:08;;;;;;;1.40;0.80;;;;;;;;;;4956614;28;20047;-59
2022/09/29 07:15:53;;;;;;;4.72;1.65;;;;;;;;;;4954260;28;20046;-59
2022/09/29 07:18:41;;;;;;;3.67;1.20;;;;;;;;;;4954935;28;20131;-58
2022/09/29 07:21:26;;;;;;;4.07;1.38;;;;;;;;;;4956844;28;20031;-59
2022/09/29 07:24:12;;;;;;;4.13;1.42;;;;;;;;;;4950339;28;20046;-59
2022/09/29 07:26:58;;;;;;;5.43;1.88;;;;;;;;;;4953932;28;20150;-59
2022/09/29 07:29:43;;;;;;;5.35;1.30;;;;;;;;;;4954011;28;20372;-59
2022/09/29 07:32:31;;;;;;;4.72;1.38;;;;;;;;;;4956752;28;20049;-59
2022/09/29 07:35:17;;;;;;;11.77;1.70;;;;;;;;;;4955160;28;20052;-59
2022/09/29 07:38:02;;;;;;;3.50;1.40;;;;;;;;;;4951922;28;20045;-59
2022/09/29 07:40:48;;;;;;;9.18;1.15;;;;;;;;;;4955665;28;20071;-59
2022/09/29 07:43:34;;;;;;;7.70;1.58;;;;;;;;;;4950828;28;20047;-59
2022/09/29 07:46:19;;;;;;;5.80;1.05;;;;;;;;;;4955123;28;20035;-59
2022/09/29 07:49:05;;;;;;;4.32;1.20;;;;;;;;;;4955463;28;20511;-59
2022/09/29 07:51:51;;;;;;;5.03;0.90;;;;;;;;;;4952464;28;20055;-59
2022/09/29 07:54:37;;;;;;;3.35;1.17;;;;;;;;;;4956065;28;20042;-59
2022/09/29 07:57:22;;;;;;;2.67;1.08;;;;;;;;;;4953262;28;20110;-58
2022/09/29 08:00:09;;;;;;;4.57;0.80;;;;;;;;;;4952632;28;20438;-59
2022/09/29 08:02:54;;;;;;;2.95;0.80;;;;;;;;;;4955039;28;20035;-59
2022/09/29 08:05:40;;;;;;;3.15;0.70;;;;;;;;;;4957213;28;20407;-59
2022/09/29 08:08:26;;;;;;;1.00;0.38;;;;;;;;;;4954334;28;20039;-59
2022/09/29 08:11:15;;;;;;;2.42;0.60;;;;;;;;;;4956165;28;20117;-59
2022/09/29 08:14:01;;;;;;;0.95;0.40;;;;;;;;;;4951527;28;20043;-59
2022/09/29 08:16:47;;;;;;;1.02;0.65;;;;;;;;;;4955194;28;20046;-58
2022/09/29 08:19:32;;;;;;;1.13;1.02;;;;;;;;;;4957581;28;20042;-59
2022/09/29 08:22:18;;;;;;;1.40;0.82;;;;;;;;;;4959911;28;20039;-59
2022/09/29 08:25:04;;;;;;;5.30;1.30;;;;;;;;;;4958465;28;20035;-59
2022/09/29 08:27:49;;;;;;;6.07;1.45;;;;;;;;;;4959625;28;20026;-59
2022/09/29 08:30:35;;;;;;;2.60;1.10;;;;;;;;;;4957822;28;20699;-60
2022/09/29 08:33:21;;;;;;;2.80;1.20;;;;;;;;;;4958593;28;20131;-58
2022/09/29 08:36:13;;;;;;;1.58;0.98;;;;;;;;;;4959266;28;20031;-59
2022/09/29 08:38:59;;;;;;;2.33;1.10;;;;;;;;;;4953262;28;20042;-59
2022/09/29 08:41:47;;;;;;;2.58;1.08;;;;;;;;;;4958756;28;20197;-59
2022/09/29 08:44:33;;;;;;;3.28;0.93;;;;;;;;;;4955143;28;20038;-59
2022/09/29 08:47:30;;;;;;;1.92;0.88;;;;;;;;;;4958715;28;20030;-59
2022/09/29 08:50:34;;;;;;;2.67;0.70;;;;;;;;;;4956517;28;20047;-59
2022/09/29 08:53:24;;;;;;;3.80;0.60;;;;;;;;;;4941215;28;20577;-58
2022/09/29 08:56:15;;;;;;;3.03;0.80;;;;;;;;;;4955197;28;20028;-59
2022/09/29 08:59:01;;;;;;;1.23;0.55;;;;;;;;;;4959096;28;20058;-59
2022/09/29 09:02:08;;;;;;;0.73;0.68;;;;;;;;;;4953976;28;20043;-59
2022/09/29 09:05:22;;;;;;;2.13;0.60;;;;;;;;;;4954386;28;20129;-59
2022/09/29 09:08:37;;;;;;;1.55;0.80;;;;;;;;;;4952040;28;20047;-59
2022/09/29 09:11:41;;;;;;;1.00;0.60;;;;;;;;;;4955448;28;20439;-59
2022/09/29 09:14:57;;;;;;;5.30;0.90;;;;;;;;;;4958580;28;20036;-59
2022/09/29 09:17:59;;;;;;;1.67;0.88;;;;;;;;;;4953776;28;20566;-59
2022/09/29 09:21:00;;;;;;;3.85;0.82;;;;;;;;;;4954933;28;20042;-59
2022/09/29 09:24:03;;;;;;;2.75;0.82;;;;;;;;;;4959951;28;20051;-59
2022/09/29 09:26:49;;;;;;;3.30;0.85;;;;;;;;;;4958178;28;20496;-59
2022/09/29 09:29:38;;;;;;;2.28;0.88;;;;;;;;;;4956122;28;20436;-59
2022/09/29 09:32:28;;;;;;;2.78;1.00;;;;;;;;;;4957819;28;20138;-59
2022/09/29 09:35:29;;;;;;;3.53;1.10;;;;;;;;;;4953661;28;20058;-59
2022/09/29 09:38:20;;;;;;;1.02;0.90;;;;;;;;;;4955306;28;20039;-59
2022/09/29 09:41:08;;;;;;;1.98;0.80;;;;;;;;;;4960606;28;20035;-59
2022/09/29 09:44:39;;;;;;;4.07;1.00;;;;;;;;;;4957207;28;20039;-59
2022/09/29 09:47:30;;;;;;;1.52;0.90;;;;;;;;;;4958924;28;20039;-59
2022/09/29 09:50:19;;;;;;;0.90;0.80;;;;;;;;;;4959875;28;20125;-59
2022/09/29 09:53:13;;;;;;;1.35;0.65;;;;;;;;;;4956632;28;20046;-59
2022/09/29 09:56:28;;;;;;;2.42;0.80;;;;;;;;;;4952988;28;20039;-59
2022/09/29 09:59:30;;;;;;;0.75;0.75;;;;;;;;;;4960928;28;20558;-59
2022/09/29 10:02:19;;;;;;;5.10;0.80;;;;;;;;;;4956615;28;20038;-59
2022/09/29 10:05:09;;;;;;;0.43;0.40;;;;;;;;;;4954286;28;20130;-59
2022/09/29 10:07:55;;;;;;;2.88;0.82;;;;;;;;;;4954530;28;20035;-60
2022/09/29 10:10:41;;;;;;;0.70;0.50;;;;;;;;;;4953503;28;20037;-60
2022/09/29 10:13:30;;;;;;;1.92;0.93;;;;;;;;;;4954437;28;23149;-59
2022/09/29 10:16:22;;;;;;;0.77;0.75;;;;;;;;;;4954311;28;20098;-60
2022/09/29 10:19:09;;;;;;;0.68;0.50;;;;;;;;;;4954251;28;20067;-60
2022/09/29 10:22:12;;;;;;;3.80;0.90;;;;;;;;;;4957940;28;20101;-59
2022/09/29 10:25:27;;;;;;;1.25;1.10;;;;;;;;;;4956456;28;20077;-60
2022/09/29 10:28:13;;;;;;;1.85;1.20;;;;;;;;;;4956093;28;20109;-59
2022/09/29 10:30:59;;;;;;;2.08;0.90;;;;;;;;;;4956389;28;20035;-59
2022/09/29 10:33:49;;;;;;;0.52;0.50;;;;;;;;;;4955248;28;20042;-59
2022/09/29 10:36:49;;;;;;;3.25;1.08;;;;;;;;;;4952458;28;20178;-59
2022/09/29 10:39:44;;;;;;;0.77;0.52;;;;;;;;;;4954250;28;20077;-60
2022/09/29 10:42:40;;;;;;;1.20;0.50;;;;;;;;;;4948566;28;20039;-59
2022/09/29 10:45:30;;;;;;;2.05;0.75;;;;;;;;;;4956635;28;20128;-59
2022/09/29 10:48:17;;;;;;;0.98;0.50;;;;;;;;;;4955201;28;20160;-59
2022/09/29 10:51:04;;;;;;;2.90;0.65;;;;;;;;;;4959283;28;20086;-60
2022/09/29 10:53:50;;;;;;;0.93;0.50;;;;;;;;;;4959343;28;20066;-59
2022/09/29 10:56:36;;;;;;;0.80;0.38;;;;;;;;;;4957378;28;20439;-59
2022/09/29 10:59:23;;;;;;;1.95;0.57;;;;;;;;;;4954658;28;20050;-58
2022/09/29 11:02:36;;;;;;;0.70;0.50;;;;;;;;;;4956365;28;20037;-59
2022/09/29 11:05:22;;;;;;;3.50;0.55;;;;;;;;;;4952953;28;20075;-60
2022/09/29 11:08:11;;;;;;;0.65;0.50;;;;;;;;;;4955428;28;20065;-60
2022/09/29 11:11:20;;;;;;;0.68;0.47;;;;;;;;;;4957337;28;20046;-59
2022/09/29 11:14:22;;;;;;;1.50;0.57;;;;;;;;;;4950507;28;20528;-59
2022/09/29 11:17:30;;;;;;;0.93;0.52;;;;;;;;;;4952981;28;20056;-60
2022/09/29 11:20:17;;;;;;;0.88;0.47;;;;;;;;;;4954596;28;20046;-60
2022/09/29 11:23:16;;;;;;;0.77;0.40;;;;;;;;;;4952453;28;20059;-59
2022/09/29 11:26:24;;;;;;;1.23;0.75;;;;;;;;;;4955326;28;20043;-60
2022/09/29 11:29:23;;;;;;;0.60;0.50;;;;;;;;;;4951763;28;20130;-59
2022/09/29 11:32:29;;;;;;;0.80;0.75;;;;;;;;;;4955654;28;20038;-59
2022/09/29 11:35:25;;;;;;;0.80;0.70;;;;;;;;;;4957328;28;20051;-59
2022/09/29 11:38:21;;;;;;;1.38;0.82;;;;;;;;;;4951767;28;20143;-60
2022/09/29 11:41:38;;;;;;;0.70;0.70;;;;;;;;;;4952612;28;20657;-59
2022/09/29 11:44:54;;;;;;;1.70;1.10;;;;;;;;;;4954780;28;20476;-60
2022/09/29 11:47:43;;;;;;;0.90;0.90;;;;;;;;;;4955931;28;20057;-60
2022/09/29 11:51:19;;;;;;;0.93;0.90;;;;;;;;;;4955747;28;20440;-59
2022/09/29 11:54:31;;;;;;;2.75;1.25;;;;;;;;;;4883260;29;20045;-60
2022/09/29 11:57:22;;;;;;;2.22;0.90;;;;;;;;;;4883664;29;20119;-60
2022/09/29 12:00:16;;;;;;;1.07;1.03;;;;;;;;;;4881114;29;20132;-59
2022/09/29 12:03:11;;;;;;;0.90;0.90;;;;;;;;;;4885899;29;20051;-59
2022/09/29 12:06:21;;;;;;;2.70;1.02;;;;;;;;;;4883073;29;20556;-59
2022/09/29 12:09:39;;;;;;;4.15;1.23;;;;;;;;;;4883385;29;20515;-59
2022/09/29 12:12:54;;;;;;;11.95;1.20;;;;;;;;;;4881650;29;20108;-60
2022/09/29 12:15:56;;;;;;;3.33;1.00;;;;;;;;;;4880345;29;20056;-59
2022/09/29 12:18:42;;;;;;;2.95;0.95;;;;;;;;;;4880730;29;20082;-59
2022/09/29 12:21:31;;;;;;;1.38;0.90;;;;;;;;;;4879988;29;20521;-60
2022/09/29 12:24:35;;;;;;;3.50;1.15;;;;;;;;;;4883152;29;20051;-60
2022/09/29 12:27:39;;;;;;;2.28;0.60;;;;;;;;;;4884282;29;20025;-59
2022/09/29 12:30:44;;;;;;;3.95;0.95;;;;;;;;;;4948650;28;20046;-60
2022/09/29 12:33:49;;;;;;;2.30;0.60;;;;;;;;;;4956217;28;20129;-59
2022/09/29 12:36:44;;;;;;;1.23;0.80;;;;;;;;;;4955225;28;20077;-59
2022/09/29 12:39:48;;;;;;;4.82;1.77;;;;;;;;;;4955154;28;20055;-59
2022/09/29 12:43:11;;;;;;;1.58;1.02;;;;;;;;;;4956644;28;20086;-60
2022/09/29 12:46:09;;;;;;;1.00;0.80;;;;;;;;;;4959625;28;20435;-60
2022/09/29 12:49:18;;;;;;;2.35;0.52;;;;;;;;;;4945384;28;20046;-59
2022/09/29 12:52:14;;;;;;;2.30;0.80;;;;;;;;;;4954201;28;20129;-59
2022/09/29 12:55:04;;;;;;;1.50;0.82;;;;;;;;;;4953192;28;20070;-60
2022/09/29 12:57:53;;;;;;;3.25;0.90;;;;;;;;;;4954745;28;20039;-59
2022/09/29 13:00:43;;;;;;;2.22;0.60;;;;;;;;;;4956816;28;20077;-60
2022/09/29 13:03:39;;;;;;;1.45;0.57;;;;;;;;;;4958996;28;20042;-60
2022/09/29 13:06:50;;;;;;;2.70;0.57;;;;;;;;;;4952371;28;20030;-60
2022/09/29 13:09:56;;;;;;;3.80;0.70;;;;;;;;;;4955973;28;20504;-60
2022/09/29 13:12:45;;;;;;;0.70;0.50;;;;;;;;;;4957468;28;20543;-59
2022/09/29 13:15:44;;;;;;;2.85;0.77;;;;;;;;;;4953303;28;20050;-59
2022/09/29 13:18:45;;;;;;;1.17;0.80;;;;;;;;;;4956707;28;20595;-60
2022/09/29 13:21:30;;;;;;;1.42;0.70;;;;;;;;;;4957335;28;20038;-60
2022/09/29 13:24:22;;;;;;;1.40;0.60;;;;;;;;;;4953950;28;20049;-60
2022/09/29 13:27:35;;;;;;;2.45;0.85;;;;;;;;;;4957933;28;20027;-60
2022/09/29 13:30:26;;;;;;;0.60;0.60;;;;;;;;;;4956497;28;20068;-60
2022/09/29 13:33:20;;;;;;;2.40;0.60;;;;;;;;;;4956552;28;20050;-60
2022/09/29 13:36:07;;;;;;;1.10;0.57;;;;;;;;;;4958653;28;20035;-60
2022/09/29 13:38:57;;;;;;;1.88;0.60;;;;;;;;;;4960111;28;20044;-60
2022/09/29 13:41:42;;;;;;;0.73;0.50;;;;;;;;;;4953137;28;20036;-60
2022/09/29 13:44:28;;;;;;;2.90;0.63;;;;;;;;;;4954424;28;20390;-60
2022/09/29 13:47:33;;;;;;;0.68;0.68;;;;;;;;;;4959679;28;20494;-60
2022/09/29 13:50:42;;;;;;;1.38;0.63;;;;;;;;;;4952747;28;20046;-60
2022/09/29 13:53:34;;;;;;;2.20;0.60;;;;;;;;;;4957084;28;20043;-59
2022/09/29 13:56:20;;;;;;;1.00;0.70;;;;;;;;;;4954768;28;20038;-59
2022/09/29 13:59:14;;;;;;;2.50;0.80;;;;;;;;;;4953772;28;20070;-60
2022/09/29 14:02:02;;;;;;;3.60;0.70;;;;;;;;;;4957876;28;20026;-55
2022/09/29 14:04:54;;;;;;;0.40;0.40;;;;;;;;;;4955662;28;20083;-60
2022/09/29 14:07:40;;;;;;;0.70;0.57;;;;;;;;;;4951114;28;20043;-59
2022/09/29 14:10:43;;;;;;;2.70;0.70;;;;;;;;;;4955554;28;20427;-60
2022/09/29 14:13:40;;;;;;;0.50;0.50;;;;;;;;;;4953003;28;20083;-60
2022/09/29 14:16:54;;;;;;;1.63;0.50;;;;;;;;;;4947819;28;20047;-60
2022/09/29 14:20:05;;;;;;;1.75;0.40;;;;;;;;;;4954163;28;20054;-60
2022/09/29 14:22:57;;;;;;;2.55;0.45;;;;;;;;;;4955625;28;20264;-59
2022/09/29 14:25:43;;;;;;;0.40;0.40;;;;;;;;;;4954010;28;20262;-60
2022/09/29 14:28:38;;;;;;;1.40;0.60;;;;;;;;;;4954885;28;20050;-60
2022/09/29 14:31:26;;;;;;;0.45;0.45;;;;;;;;;;4952488;28;20074;-59
2022/09/29 14:34:14;;;;;;;2.88;0.52;;;;;;;;;;4955673;28;20047;-59
2022/09/29 14:37:02;;;;;;;3.15;0.60;;;;;;;;;;4951916;28;20419;-60
2022/09/29 14:43:14;;;;;;;1.27;0.50;;;;;;;;;;4955805;28;20043;-60
2022/09/29 14:52:52;;;;;;;2.33;0.43;;;;;;;;;;4953890;28;20039;-58
2022/09/29 14:56:02;;;;;;;0.65;0.40;;;;;;;;;;4952188;28;20023;-60
2022/09/29 14:58:58;;;;;;;0.60;0.43;;;;;;;;;;4953384;28;20122;-60
2022/09/29 15:02:04;;;;;;;1.00;0.50;;;;;;;;;;4955689;28;20030;-60
2022/09/29 15:04:50;;;;;;;0.40;0.38;;;;;;;;;;4952662;28;20040;-60
2022/09/29 15:07:40;;;;;;;1.20;0.40;;;;;;;;;;4955388;28;20039;-60
2022/09/29 15:10:39;;;;;;;0.80;0.65;;;;;;;;;;4956407;28;20514;-60
2022/09/29 15:13:29;;;;;;;3.85;0.50;;;;;;;;;;4956198;28;20499;-60
2022/09/29 15:16:31;;;;;;;2.97;0.50;;;;;;;;;;4952484;28;20417;-60
2022/09/29 15:19:22;;;;;;;0.55;0.50;;;;;;;;;;4955656;28;20094;-60
2022/09/29 15:22:30;;;;;;;0.63;0.63;;;;;;;;;;4953170;28;20078;-60
2022/09/29 15:25:26;;;;;;;0.82;0.40;;;;;;;;;;4949926;28;20778;-60
2022/09/29 15:28:16;;;;;;;0.70;0.50;;;;;;;;;;4953992;28;20051;-60
2022/09/29 15:31:26;;;;;;;0.65;0.47;;;;;;;;;;4961856;28;20039;-60
2022/09/29 15:34:18;;;;;;;3.30;0.57;;;;;;;;;;4956729;28;20040;-60
2022/09/29 15:37:04;;;;;;;;;;;;;;;;;;4956923;28;20040;-60
2022/09/29 15:39:51;;;;;;;0.60;0.50;;;;;;;;;;4958029;28;19929;-60
2022/09/29 15:42:38;;;;;;;0.60;0.60;;;;;;;;;;4954962;28;20027;-56
2022/09/29 15:45:26;;;;;;;3.03;0.70;;;;;;;;;;4959435;28;20020;-60
2022/09/29 15:48:15;;;;;;;0.60;0.60;;;;;;;;;;4956333;28;20129;-60
2022/09/29 15:51:00;;;;;;;0.88;0.80;;;;;;;;;;4956609;28;20058;-60
2022/09/29 15:53:46;;;;;;;0.50;0.50;;;;;;;;;;4957996;28;20047;-60
2022/09/29 15:57:41;;;;;;;0.80;0.50;;;;;;;;;;4957204;28;20079;-60
2022/09/29 15:59:52;;;;;;;2.65;0.55;;;;;;;;;;4958381;28;20043;-60
2022/09/29 16:02:41;;;;;;;5.25;0.63;;;;;;;;;;4953348;28;20038;-59
2022/09/29 16:05:30;;;;;;;3.13;0.60;;;;;;;;;;4957019;28;20034;-60
2022/09/29 16:08:21;;;;;;;8.48;0.65;;;;;;;;;;4959939;28;20034;-61
2022/09/29 16:11:14;;;;;;;2.50;0.60;;;;;;;;;;4961355;28;20039;-60
2022/09/29 16:14:20;;;;;;;1.25;0.43;;;;;;;;;;4956815;28;20055;-58
2022/09/29 16:17:07;;;;;;;0.75;0.50;;;;;;;;;;4954511;28;20063;-60
2022/09/29 16:19:53;;;;;;;1.27;0.55;;;;;;;;;;4958807;28;20046;-60
2022/09/29 16:22:40;;;;;;;1.98;0.70;;;;;;;;;;4956175;28;20155;-60
2022/09/29 16:25:28;;;;;;;2.08;0.70;;;;;;;;;;4954674;28;20058;-60
2022/09/29 16:28:26;;;;;;;2.03;0.45;;;;;;;;;;4960121;28;20054;-60
2022/09/29 16:31:21;;;;;;;1.45;0.70;;;;;;;;;;4952476;28;20400;-60
2022/09/29 16:34:29;;;;;;;3.60;0.60;;;;;;;;;;4956926;28;20050;-60
2022/09/29 16:37:16;;;;;;;8.77;0.65;;;;;;;;;;4955784;28;20030;-60
2022/09/29 16:40:02;;;;;;;0.60;0.60;;;;;;;;;;4954613;28;20492;-60
2022/09/29 16:42:52;;;;;;;2.00;0.55;;;;;;;;;;4957043;28;20039;-60
2022/09/29 16:45:38;;;;;;;1.60;0.70;;;;;;;;;;4953486;28;20023;-60
2022/09/29 16:48:28;;;;;;;1.75;0.60;;;;;;;;;;4958027;28;20049;-60
2022/09/29 16:51:20;;;;;;;4.38;0.60;;;;;;;;;;4956438;28;20452;-60
2022/09/29 16:54:12;;;;;;;;;;;;;;;;;;4949347;28;20091;-60
2022/09/29 16:57:22;;;;;;;3.15;0.95;;;;;;;;;;4956355;28;19926;-60
2022/09/29 17:00:12;;;;;;;1.38;0.75;;;;;;;;;;4952561;28;20067;-60
2022/09/29 17:03:01;;;;;;;1.27;0.60;;;;;;;;;;4957680;28;20062;-59
2022/09/29 17:05:48;;;;;;;2.10;0.60;;;;;;;;;;4949632;28;20067;-60
2022/09/29 17:08:33;;;;;;;4.00;0.70;;;;;;;;;;4953805;28;20047;-60
2022/09/29 17:11:19;;;;;;;1.75;0.70;;;;;;;;;;4953171;28;20039;-60
2022/09/29 17:14:10;;;;;;;1.15;0.60;;;;;;;;;;4953563;28;20091;-60
2022/09/29 17:16:56;;;;;;;5.50;0.40;;;;;;;;;;4953963;28;20035;-60
2022/09/29 17:19:42;;;;;;;0.75;0.73;;;;;;;;;;4951185;28;20117;-60
2022/09/29 17:22:33;;;;;;;2.53;0.70;;;;;;;;;;4949210;28;20086;-60
2022/09/29 17:25:19;;;;;;;1.08;0.73;;;;;;;;;;4949067;28;20153;-60